createdAt,value
2023-05-19T00:00:31.181Z,77.21
2023-05-19T00:03:40.831Z,77.57
2023-05-19T00:06:51.059Z,78.21
2023-05-19T00:09:54.234Z,78.33
2023-05-19T00:12:57.790Z,78.47
2023-05-19T00:16:00.888Z,77.83
2023-05-19T00:19:05.765Z,77.62
2023-05-19T00:22:08.303Z,76.79
2023-05-19T00:25:10.906Z,76.59
2023-05-19T00:28:13.521Z,76.24
2023-05-19T00:31:18.678Z,76.55
2023-05-19T00:34:21.283Z,76.76
2023-05-19T00:37:23.979Z,76.92
2023-05-19T00:40:28.114Z,77.22
2023-05-19T00:43:31.230Z,77.05
2023-05-19T00:46:34.284Z,77.89
2023-05-19T00:49:37.159Z,78.30
2023-05-19T00:52:39.868Z,78.64
2023-05-19T00:55:43.001Z,80.01
2023-05-19T00:58:50.835Z,80.41
2023-05-19T01:01:54.703Z,80.33
2023-05-19T01:04:57.507Z,81.22
2023-05-19T01:08:00.116Z,81.62
2023-05-19T01:11:03.463Z,81.72
2023-05-19T01:14:06.153Z,82.06
2023-05-19T01:17:31.613Z,81.52
2023-05-19T01:20:41.785Z,81.18
2023-05-19T01:23:58.236Z,81.05
2023-05-19T01:27:20.449Z,81.16
2023-05-19T01:30:40.047Z,81.10
2023-05-19T01:33:43.904Z,81.63
2023-05-19T01:36:49.968Z,81.66
2023-05-19T01:39:53.484Z,81.75
2023-05-19T01:42:58.328Z,81.77
2023-05-19T01:46:02.804Z,82.00
2023-05-19T01:49:10.626Z,82.21
2023-05-19T01:52:13.249Z,82.50
2023-05-19T01:55:17.206Z,81.83
2023-05-19T01:58:20.800Z,82.27
2023-05-19T02:01:30.069Z,82.34
2023-05-19T02:04:42.427Z,81.47
2023-05-19T02:07:55.755Z,81.97
2023-05-19T02:11:07.378Z,81.51
2023-05-19T02:14:18.287Z,81.62
2023-05-19T02:17:23.454Z,80.89
2023-05-19T02:20:26.741Z,80.97
2023-05-19T02:23:29.423Z,81.31
2023-05-19T02:26:33.224Z,81.24
2023-05-19T02:29:35.911Z,81.13
2023-05-19T02:32:38.564Z,80.89
2023-05-19T02:35:41.150Z,81.09
2023-05-19T02:38:43.793Z,80.76
2023-05-19T02:41:46.402Z,81.43
2023-05-19T02:44:49.784Z,82.27
2023-05-19T02:47:53.016Z,83.12
2023-05-19T02:50:57.461Z,83.52
2023-05-19T02:54:00.094Z,83.57
2023-05-19T02:57:02.833Z,82.90
2023-05-19T03:00:06.958Z,83.59
2023-05-19T03:03:11.748Z,83.41
2023-05-19T03:06:15.681Z,83.35
2023-05-19T03:09:18.742Z,84.06
2023-05-19T03:12:21.972Z,83.46
2023-05-19T03:15:24.763Z,83.68
2023-05-19T03:18:28.059Z,83.13
2023-05-19T03:21:32.228Z,83.56
2023-05-19T03:24:34.856Z,83.24
2023-05-19T03:27:39.224Z,82.76
2023-05-19T03:30:47.394Z,82.14
2023-05-19T03:33:54.412Z,82.15
2023-05-19T03:36:58.085Z,81.65
2023-05-19T03:40:02.151Z,81.64
2023-05-19T03:43:05.455Z,81.68
2023-05-19T03:46:12.002Z,81.44
2023-05-19T03:49:17.746Z,81.29
2023-05-19T03:52:49.588Z,80.92
2023-05-19T03:56:18.814Z,80.60
2023-05-19T03:59:21.503Z,81.06
2023-05-19T04:02:25.719Z,80.74
2023-05-19T04:05:28.358Z,80.70
2023-05-19T04:08:31.124Z,80.47
2023-05-19T04:11:34.761Z,80.30
2023-05-19T04:14:37.395Z,80.02
2023-05-19T04:17:40.368Z,79.85
2023-05-19T04:20:43.053Z,79.36
2023-05-19T04:23:45.773Z,79.36
2023-05-19T04:26:48.392Z,78.84
2023-05-19T04:29:53.076Z,79.23
2023-05-19T04:32:58.240Z,78.60
2023-05-19T04:36:05.634Z,77.91
2023-05-19T04:39:12.133Z,77.70
2023-05-19T04:42:21.450Z,76.92
2023-05-19T04:45:26.201Z,76.48
2023-05-19T04:48:34.162Z,76.12
2023-05-19T04:51:36.769Z,76.42
2023-05-19T04:54:40.299Z,75.96
2023-05-19T04:57:44.212Z,75.33
2023-05-19T05:00:47.180Z,74.95
2023-05-19T05:03:50.092Z,74.17
2023-05-19T05:06:52.667Z,73.57
2023-05-19T05:09:57.898Z,72.46
2023-05-19T05:13:02.050Z,72.10
2023-05-19T05:16:06.675Z,71.41
2023-05-19T05:19:09.804Z,71.61
2023-05-19T05:22:15.208Z,71.19
2023-05-19T05:25:18.420Z,70.87
2023-05-19T05:28:21.557Z,70.93
2023-05-19T05:31:24.212Z,69.88
2023-05-19T05:34:27.344Z,69.64
2023-05-19T05:37:31.038Z,68.63
2023-05-19T05:40:33.614Z,68.88
2023-05-19T05:43:36.973Z,68.19
2023-05-19T05:46:41.343Z,68.76
2023-05-19T05:49:48.220Z,68.61
2023-05-19T05:52:53.951Z,68.77
2023-05-19T05:55:57.481Z,68.80
2023-05-19T05:59:04.410Z,69.71
2023-05-19T06:02:07.184Z,69.54
2023-05-19T06:05:12.507Z,69.61
2023-05-19T06:08:15.563Z,69.97
2023-05-19T06:11:19.824Z,69.66
2023-05-19T06:14:23.599Z,69.11
2023-05-19T06:17:53.248Z,68.61
2023-05-19T06:20:56.179Z,68.72
2023-05-19T06:23:58.911Z,67.98
2023-05-19T06:27:02.160Z,67.20
2023-05-19T06:30:05.277Z,67.45
2023-05-19T06:33:14.494Z,66.77
2023-05-19T06:36:17.324Z,67.13
2023-05-19T06:39:21.145Z,66.93
2023-05-19T06:42:25.332Z,66.31
2023-05-19T06:45:34.544Z,65.70
2023-05-19T06:48:39.574Z,65.70
2023-05-19T06:51:43.709Z,65.42
2023-05-19T06:54:46.529Z,64.76
2023-05-19T06:57:49.147Z,63.04
2023-05-19T07:00:53.591Z,62.60
2023-05-19T07:03:59.079Z,61.67
2023-05-19T07:07:01.929Z,60.24
2023-05-19T07:10:07.974Z,60.28
2023-05-19T07:13:10.532Z,59.47
2023-05-19T07:16:13.152Z,59.60
2023-05-19T07:19:16.233Z,58.31
2023-05-19T07:22:21.123Z,58.85
2023-05-19T07:25:23.930Z,58.43
2023-05-19T07:28:26.686Z,59.80
2023-05-19T07:31:30.545Z,59.27
2023-05-19T07:34:33.160Z,59.47
2023-05-19T07:37:36.195Z,58.85
2023-05-19T07:40:38.842Z,58.95
2023-05-19T07:43:41.824Z,59.58
2023-05-19T07:46:44.546Z,58.54
2023-05-19T07:49:49.691Z,57.18
2023-05-19T07:52:53.729Z,56.86
2023-05-19T07:55:58.686Z,55.57
2023-05-19T07:59:02.495Z,55.31
2023-05-19T08:02:05.273Z,54.31
2023-05-19T08:05:09.790Z,53.79
2023-05-19T08:08:12.897Z,53.52
2023-05-19T08:11:15.521Z,54.15
2023-05-19T08:14:18.313Z,53.54
2023-05-19T08:17:20.972Z,53.02
2023-05-19T08:20:24.415Z,52.85
2023-05-19T08:23:28.307Z,51.98
2023-05-19T08:26:30.899Z,52.33
2023-05-19T08:29:33.564Z,51.38
2023-05-19T08:32:36.511Z,51.47
2023-05-19T08:35:39.059Z,51.29
2023-05-19T08:38:41.664Z,50.91
2023-05-19T08:41:44.655Z,51.51
2023-05-19T08:44:47.244Z,51.34
2023-05-19T08:47:51.521Z,51.80
2023-05-19T08:50:58.541Z,50.74
2023-05-19T08:54:15.992Z,50.36
2023-05-19T08:57:19.191Z,49.89
2023-05-19T09:00:22.768Z,48.87
2023-05-19T09:03:26.691Z,48.23
2023-05-19T09:06:32.424Z,47.82
2023-05-19T09:09:36.221Z,46.63
2023-05-19T09:12:38.809Z,46.53
2023-05-19T09:15:43.006Z,47.09
2023-05-19T09:18:58.480Z,47.13
2023-05-19T09:22:05.123Z,47.80
2023-05-19T09:25:20.265Z,48.83
2023-05-19T09:28:33.776Z,48.76
2023-05-19T09:31:36.430Z,48.61
2023-05-19T09:34:42.200Z,46.94
2023-05-19T09:37:44.796Z,45.79
2023-05-19T09:40:49.896Z,46.24
2023-05-19T09:43:56.341Z,46.79
2023-05-19T09:47:00.278Z,47.71
2023-05-19T09:50:04.647Z,46.77
2023-05-19T09:53:07.798Z,46.56
2023-05-19T09:56:11.125Z,44.98
2023-05-19T09:59:16.370Z,43.97
2023-05-19T10:02:21.789Z,43.32
2023-05-19T10:05:24.624Z,42.14
2023-05-19T10:08:30.623Z,41.26
2023-05-19T10:11:33.852Z,42.46
2023-05-19T10:14:38.316Z,43.43
2023-05-19T10:17:43.653Z,43.25
2023-05-19T10:20:48.792Z,42.48
2023-05-19T10:23:51.534Z,41.57
2023-05-19T10:27:05.609Z,40.77
2023-05-19T10:30:16.355Z,39.42
2023-05-19T10:33:21.218Z,39.64
2023-05-19T10:36:39.766Z,38.67
2023-05-19T10:39:44.383Z,38.78
2023-05-19T10:44:35.856Z,37.59
2023-05-19T10:47:41.809Z,36.21
2023-05-19T10:50:46.829Z,36.51
2023-05-19T10:53:50.303Z,36.83
2023-05-19T10:56:57.752Z,36.22
2023-05-19T11:00:11.623Z,34.73
2023-05-19T11:03:19.156Z,33.65
2023-05-19T11:06:25.192Z,32.17
2023-05-19T11:09:37.965Z,31.48
2023-05-19T11:12:45.672Z,31.24
2023-05-19T11:15:49.942Z,27.53
2023-05-19T11:18:55.156Z,31.89
2023-05-19T11:22:08.918Z,34.66
2023-05-19T11:25:11.527Z,27.72
2023-05-19T11:28:25.757Z,25.43
2023-05-19T11:31:30.920Z,22.49
2023-05-19T11:34:34.040Z,20.75
2023-05-19T11:37:37.186Z,20.29
2023-05-19T11:40:42.291Z,19.12
2023-05-19T11:43:47.863Z,18.48
2023-05-19T11:46:50.862Z,17.83
2023-05-19T11:49:56.674Z,16.81
2023-05-19T11:53:01.394Z,17.07
2023-05-19T11:56:05.720Z,20.56
2023-05-19T11:59:10.971Z,25.56
2023-05-19T12:02:14.087Z,21.17
2023-05-19T12:05:27.257Z,19.29
2023-05-19T12:08:30.177Z,17.91
2023-05-19T12:11:33.262Z,17.21
2023-05-19T12:14:36.201Z,19.81
2023-05-19T12:17:39.166Z,17.83
2023-05-19T12:20:42.384Z,16.37
2023-05-19T12:23:45.259Z,16.44
2023-05-19T12:26:51.987Z,16.07
2023-05-19T12:30:00.260Z,16.27
2023-05-19T12:33:03.690Z,22.05
2023-05-19T12:36:07.745Z,25.99
2023-05-19T12:39:11.696Z,27.99
2023-05-19T12:42:16.165Z,29.56
2023-05-19T12:45:21.615Z,25.86
2023-05-19T12:48:24.354Z,21.30
2023-05-19T12:51:26.963Z,18.13
2023-05-19T12:54:34.471Z,17.46
2023-05-19T12:57:39.091Z,16.98
2023-05-19T13:00:43.834Z,16.81
2023-05-19T13:03:48.657Z,16.06
2023-05-19T13:06:53.869Z,21.44
2023-05-19T13:09:58.066Z,22.27
2023-05-19T13:13:01.142Z,27.34
2023-05-19T13:16:04.988Z,25.51
2023-05-19T13:19:21.207Z,21.43
2023-05-19T13:22:28.596Z,23.89
2023-05-19T13:25:32.849Z,25.14
2023-05-19T13:28:35.629Z,20.97
2023-05-19T13:31:38.508Z,20.23
2023-05-19T13:34:42.516Z,20.55
2023-05-19T13:37:46.513Z,19.78
2023-05-19T13:40:49.126Z,17.73
2023-05-19T13:43:53.151Z,18.00
2023-05-19T13:46:57.248Z,16.07
2023-05-19T13:50:00.353Z,16.18
2023-05-19T13:53:03.735Z,16.40
2023-05-19T13:56:07.172Z,15.79
2023-05-19T13:59:09.749Z,16.36
2023-05-19T14:02:12.851Z,16.30
2023-05-19T14:05:15.520Z,17.87
2023-05-19T14:08:18.955Z,23.26
2023-05-19T14:11:21.901Z,25.93
2023-05-19T14:14:27.498Z,36.15
2023-05-19T14:17:30.089Z,33.28
2023-05-19T14:20:33.104Z,30.97
2023-05-19T14:23:35.921Z,31.73
2023-05-19T14:26:38.618Z,31.91
2023-05-19T14:29:43.390Z,32.45
2023-05-19T14:32:46.022Z,32.75
2023-05-19T14:35:48.615Z,33.96
2023-05-19T14:38:51.158Z,34.87
2023-05-19T14:41:53.813Z,35.27
2023-05-19T14:44:56.380Z,35.21
2023-05-19T14:47:59.218Z,33.83
2023-05-19T14:51:01.947Z,33.33
2023-05-19T14:54:04.726Z,33.17
2023-05-19T14:57:08.241Z,33.64
2023-05-19T15:00:11.312Z,34.63
2023-05-19T15:03:14.905Z,35.92
2023-05-19T15:06:17.620Z,36.41
2023-05-19T15:09:20.165Z,36.79
2023-05-19T15:12:22.792Z,35.91
2023-05-19T15:15:25.467Z,35.06
2023-05-19T15:18:28.062Z,35.55
2023-05-19T15:21:31.341Z,35.46
2023-05-19T15:24:34.132Z,35.56
2023-05-19T15:27:36.782Z,35.81
2023-05-19T15:30:39.984Z,35.90
2023-05-19T15:33:42.788Z,35.94
2023-05-19T15:36:45.820Z,36.55
2023-05-19T15:39:48.559Z,36.07
2023-05-19T15:42:51.155Z,36.73
2023-05-19T15:45:55.350Z,37.24
2023-05-19T15:48:59.291Z,37.68
2023-05-19T15:52:04.081Z,37.57
2023-05-19T15:55:07.510Z,37.96
2023-05-19T15:58:10.362Z,38.04
2023-05-19T16:01:18.232Z,38.18
2023-05-19T16:04:21.302Z,38.25
2023-05-19T16:07:24.369Z,37.98
2023-05-19T16:10:27.068Z,38.35
2023-05-19T16:13:31.017Z,37.64
2023-05-19T16:16:33.821Z,37.68
2023-05-19T16:19:36.578Z,38.52
2023-05-19T16:22:39.442Z,38.99
2023-05-19T16:25:42.085Z,39.41
2023-05-19T16:28:44.673Z,40.22
2023-05-19T16:31:47.340Z,40.79
2023-05-19T16:34:50.210Z,41.14
2023-05-19T16:37:53.853Z,41.57
2023-05-19T16:40:56.633Z,42.09
2023-05-19T16:43:59.452Z,42.54
2023-05-19T16:47:02.034Z,42.56
2023-05-19T16:50:04.828Z,42.71
2023-05-19T16:53:07.446Z,42.69
2023-05-19T16:56:10.390Z,42.38
2023-05-19T16:59:13.921Z,42.51
2023-05-19T17:02:17.203Z,42.33
2023-05-19T17:05:20.196Z,42.51
2023-05-19T17:08:23.249Z,43.03
2023-05-19T17:11:27.416Z,43.57
2023-05-19T17:14:30.624Z,44.16
2023-05-19T17:17:33.836Z,44.64
2023-05-19T17:20:36.988Z,45.17
2023-05-19T17:23:40.485Z,45.66
2023-05-19T17:26:43.436Z,45.97
2023-05-19T17:29:46.455Z,46.08
2023-05-19T17:32:49.628Z,46.69
2023-05-19T17:35:52.722Z,46.84
2023-05-19T17:38:55.593Z,47.06
2023-05-19T17:41:58.355Z,47.39
2023-05-19T17:45:04.428Z,47.99
2023-05-19T17:48:07.275Z,48.72
2023-05-19T17:51:09.958Z,49.04
2023-05-19T17:54:13.122Z,49.18
2023-05-19T17:57:17.841Z,50.14
2023-05-19T18:00:21.207Z,50.94
2023-05-19T18:03:24.827Z,51.19
2023-05-19T18:06:29.619Z,51.75
2023-05-19T18:09:36.639Z,51.87
2023-05-19T18:12:39.489Z,52.41
2023-05-19T18:15:43.448Z,52.64
2023-05-19T18:18:50.578Z,53.26
2023-05-19T18:21:53.614Z,53.54
2023-05-19T18:24:59.931Z,53.83
2023-05-19T18:28:02.617Z,55.20
2023-05-19T18:31:06.194Z,55.41
2023-05-19T18:34:08.986Z,56.40
2023-05-19T18:37:12.337Z,57.20
2023-05-19T18:40:15.076Z,58.14
2023-05-19T18:43:18.699Z,58.24
2023-05-19T18:46:22.127Z,59.30
2023-05-19T18:49:25.486Z,59.44
2023-05-19T18:52:29.180Z,59.51
2023-05-19T18:55:32.148Z,59.24
2023-05-19T18:58:36.108Z,59.79
2023-05-19T19:01:39.114Z,59.40
2023-05-19T19:04:42.186Z,59.56
2023-05-19T19:07:45.161Z,59.97
2023-05-19T19:10:50.491Z,60.04
2023-05-19T19:13:55.593Z,59.63
2023-05-19T19:16:58.236Z,59.86
2023-05-19T19:20:01.179Z,60.95
2023-05-19T19:23:06.971Z,60.73
2023-05-19T19:26:09.858Z,61.30
2023-05-19T19:29:12.484Z,61.59
2023-05-19T19:32:15.071Z,61.71
2023-05-19T19:35:17.871Z,61.78
2023-05-19T19:38:21.655Z,61.27
2023-05-19T19:41:25.422Z,61.22
2023-05-19T19:44:28.248Z,61.30
2023-05-19T19:47:31.361Z,61.40
2023-05-19T19:50:34.740Z,61.74
2023-05-19T19:53:37.698Z,62.29
2023-05-19T19:56:40.528Z,62.31
2023-05-19T19:59:43.857Z,62.23
2023-05-19T20:05:56.466Z,62.94
2023-05-19T20:08:59.829Z,62.97
2023-05-19T20:12:02.590Z,63.27
2023-05-19T20:15:07.575Z,63.90
2023-05-19T20:18:11.335Z,64.58
2023-05-19T20:21:15.078Z,64.93
2023-05-19T20:24:17.881Z,66.27
2023-05-19T20:27:20.446Z,66.10
2023-05-19T20:30:23.247Z,66.21
2023-05-19T20:33:26.538Z,67.68
2023-05-19T20:36:29.384Z,66.83
2023-05-19T20:39:32.072Z,66.50
2023-05-19T20:42:34.688Z,66.73
2023-05-19T20:45:37.767Z,67.01
2023-05-19T20:48:40.822Z,66.86
2023-05-19T20:51:43.428Z,67.92
2023-05-19T20:54:46.586Z,67.31
2023-05-19T20:57:49.153Z,67.04
2023-05-19T21:00:57.739Z,67.50
2023-05-19T21:04:01.356Z,67.43
2023-05-19T21:07:04.107Z,68.84
2023-05-19T21:10:07.584Z,68.32
2023-05-19T21:13:10.216Z,69.15
2023-05-19T21:16:12.997Z,69.37
2023-05-19T21:19:15.749Z,69.65
2023-05-19T21:22:18.333Z,69.52
2023-05-19T21:25:20.919Z,70.15
2023-05-19T21:28:23.449Z,69.87
2023-05-19T21:31:26.197Z,70.36
2023-05-19T21:34:28.912Z,70.62
2023-05-19T21:37:31.825Z,71.07
2023-05-19T21:40:34.787Z,71.17
2023-05-19T21:43:37.732Z,71.58
2023-05-19T21:46:40.252Z,70.70
2023-05-19T21:49:43.015Z,71.05
2023-05-19T21:52:47.082Z,71.18
2023-05-19T21:55:49.685Z,71.11
2023-05-19T21:58:52.363Z,71.46
2023-05-19T22:01:54.937Z,70.97
2023-05-19T22:04:57.700Z,71.22
2023-05-19T22:08:00.781Z,71.41
2023-05-19T22:11:03.460Z,71.80
2023-05-19T22:14:06.079Z,71.63
2023-05-19T22:17:09.008Z,72.20
2023-05-19T22:20:12.101Z,72.30
2023-05-19T22:23:15.163Z,72.61
2023-05-19T22:26:17.740Z,72.55
2023-05-19T22:29:20.912Z,73.17
2023-05-19T22:32:23.662Z,72.90
2023-05-19T22:35:26.351Z,72.73
2023-05-19T22:38:29.458Z,73.02
2023-05-19T22:41:32.422Z,72.76
2023-05-19T22:44:35.847Z,72.93
2023-05-19T22:47:38.559Z,73.24
2023-05-19T22:50:41.477Z,73.40
2023-05-19T22:53:46.634Z,73.58
2023-05-19T22:56:49.309Z,73.60
2023-05-19T22:59:51.871Z,74.08
2023-05-19T23:02:55.776Z,74.11
2023-05-19T23:05:58.470Z,74.13
2023-05-19T23:09:02.332Z,74.03
2023-05-19T23:12:06.566Z,74.01
2023-05-19T23:15:11.111Z,74.17
2023-05-19T23:18:15.171Z,74.58
2023-05-19T23:21:19.468Z,74.89
2023-05-19T23:24:21.932Z,75.05
2023-05-19T23:27:24.977Z,75.10
2023-05-19T23:30:31.509Z,75.01
2023-05-19T23:33:36.082Z,75.29
2023-05-19T23:36:38.787Z,75.29
2023-05-19T23:39:41.367Z,76.42
2023-05-19T23:42:44.725Z,76.38
2023-05-19T23:45:47.381Z,75.90
2023-05-19T23:48:51.258Z,76.19
2023-05-19T23:51:55.640Z,76.58
2023-05-19T23:54:58.344Z,76.98
2023-05-19T23:58:02.041Z,76.83
